地図

経路データ

SID SEASON NUMBER BASIN SUBBASIN NAME ISO_TIME NATURE LAT LON WMO_WIND WMO_PRES WMO_AGENCY TRACK_TYPE DIST2LAND LANDFALL IFLAG USA_AGENCY USA_ATCF_ID USA_LAT USA_LON USA_RECORD USA_STATUS USA_WIND USA_PRES USA_SSHS USA_R34_NE USA_R34_SE USA_R34_SW USA_R34_NW USA_R50_NE USA_R50_SE USA_R50_SW USA_R50_NW USA_R64_NE USA_R64_SE USA_R64_SW USA_R64_NW USA_POCI USA_ROCI USA_RMW USA_EYE TOKYO_LAT TOKYO_LON TOKYO_GRADE TOKYO_WIND TOKYO_PRES TOKYO_R50_DIR TOKYO_R50_LONG TOKYO_R50_SHORT TOKYO_R30_DIR TOKYO_R30_LONG TOKYO_R30_SHORT TOKYO_LAND CMA_LAT CMA_LON CMA_CAT CMA_WIND CMA_PRES HKO_LAT HKO_LON HKO_CAT HKO_WIND HKO_PRES NEWDELHI_LAT NEWDELHI_LON NEWDELHI_GRADE NEWDELHI_WIND NEWDELHI_PRES NEWDELHI_CI NEWDELHI_DP NEWDELHI_POCI REUNION_LAT REUNION_LON REUNION_TYPE REUNION_WIND REUNION_PRES REUNION_TNUM REUNION_CI REUNION_RMW REUNION_R34_NE REUNION_R34_SE REUNION_R34_SW REUNION_R34_NW REUNION_R50_NE REUNION_R50_SE REUNION_R50_SW REUNION_R50_NW REUNION_R64_NE REUNION_R64_SE REUNION_R64_SW REUNION_R64_NW BOM_LAT BOM_LON BOM_TYPE BOM_WIND BOM_PRES BOM_TNUM BOM_CI BOM_RMW BOM_R34_NE BOM_R34_SE BOM_R34_SW BOM_R34_NW BOM_R50_NE BOM_R50_SE BOM_R50_SW BOM_R50_NW BOM_R64_NE BOM_R64_SE BOM_R64_SW BOM_R64_NW BOM_ROCI BOM_POCI BOM_EYE BOM_POS_METHOD BOM_PRES_METHOD NADI_LAT NADI_LON NADI_CAT NADI_WIND NADI_PRES WELLINGTON_LAT WELLINGTON_LON WELLINGTON_WIND WELLINGTON_PRES DS824_LAT DS824_LON DS824_STAGE DS824_WIND DS824_PRES TD9636_LAT TD9636_LON TD9636_STAGE TD9636_WIND TD9636_PRES TD9635_LAT TD9635_LON TD9635_WIND TD9635_PRES TD9635_ROCI NEUMANN_LAT NEUMANN_LON NEUMANN_CLASS NEUMANN_WIND NEUMANN_PRES MLC_LAT MLC_LON MLC_CLASS MLC_WIND MLC_PRES USA_GUST BOM_GUST BOM_GUST_PER REUNION_GUST REUNION_GUST_PER USA_SEAHGT USA_SEARAD_NE USA_SEARAD_SE USA_SEARAD_SW USA_SEARAD_NW STORM_SPEED STORM_DIR
1956238N14117 1956 77 WP MM NOT_NAMED 1956-08-25 00:00:00 TS 14.0000 116.500 main 398 385 __O___________ -1 14.0000 116.500 0 1006 11 351
1956238N14117 1956 77 WP MM NOT_NAMED 1956-08-25 03:00:00 TS 14.5250 116.410 main 389 378 __P___________ -1 14.5250 116.410 0 1005 10 349
1956238N14117 1956 77 WP MM NOT_NAMED 1956-08-25 06:00:00 TS 15.0000 116.300 main 381 378 __O___________ -1 15.0000 116.300 0 1004 9 343
1956238N14117 1956 77 WP MM NOT_NAMED 1956-08-25 09:00:00 TS 15.3874 116.145 main 391 389 __P___________ -1 15.3874 116.145 0 1004 8 331
1956238N14117 1956 77 WP MM NOT_NAMED 1956-08-25 12:00:00 TS 15.7000 115.900 main 408 408 __O___________ -1 15.7000 115.900 0 1004 8 313
1956238N14117 1956 77 WP MM NOT_NAMED 1956-08-25 15:00:00 TS 15.9275 115.545 main 449 449 __P___________ -1 15.9275 115.545 0 1004 9 303
1956238N14117 1956 77 WP MM NOT_NAMED 1956-08-25 18:00:00 TS 16.2000 115.100 main 492 492 __O___________ -1 16.2000 115.100 0 1004 12 307
1956238N14117 1956 77 WP MM NOT_NAMED 1956-08-25 21:00:00 TS 16.6402 114.578 main 499 420 __P___________ -1 16.6402 114.578 0 1003 14 316
1956238N14117 1956 77 WP MM NOT_NAMED 1956-08-26 00:00:00 TS 17.2000 114.100 main 420 357 __O___________ -1 17.2000 114.100 1 23 1002 14 330
1956238N14117 1956 77 WP MM NOT_NAMED 1956-08-26 03:00:00 TS 17.8722 113.820 main 350 299 __P___________ -1 17.8722 113.820 1 23 1002 14 340
1956238N14117 1956 77 WP MM NOT_NAMED 1956-08-26 06:00:00 TS 18.5000 113.600 main 299 263 __O___________ -1 18.5000 113.600 1 23 1002 11 337
1956238N14117 1956 77 WP MM NOT_NAMED 1956-08-26 09:00:00 TS 18.9096 113.360 main 263 214 __P___________ -1 18.9096 113.360 1 21 1002 9 321
1956238N14117 1956 77 WP MM NOT_NAMED 1956-08-26 12:00:00 TS 19.2000 113.000 main 214 157 __O___________ -1 19.2000 113.000 0 19 1002 11 303
1956238N14117 1956 77 WP MM NOT_NAMED 1956-08-26 15:00:00 TS 19.4950 112.418 main 147 74 __P___________ -1 19.4950 112.418 0 19 1002 13 292
1956238N14117 1956 77 WP MM NOT_NAMED 1956-08-26 18:00:00 TS 19.7000 111.700 main 74 10 __O___________ -1 19.7000 111.700 0 19 1002 14 281
1956238N14117 1956 77 WP MM NOT_NAMED 1956-08-26 21:00:00 TS 19.7576 110.942 main 0 0 __P___________ -1 19.7576 110.942 0 19 1002 14 274
1956238N14117 1956 77 WP MM NOT_NAMED 1956-08-27 00:00:00 TS 19.8000 110.200 main 0 0 __O___________ -1 19.8000 110.200 0 19 1002 13 280
1956238N14117 1956 77 WP MM NOT_NAMED 1956-08-27 03:00:00 TS 19.9771 109.578 main 11 11 __P___________ -1 19.9771 109.578 0 1002 12 290
1956238N14117 1956 77 WP MM NOT_NAMED 1956-08-27 06:00:00 TS 20.2000 109.000 main 54 54 __O___________ -1 20.2000 109.000 0 1002 12 291
1956238N14117 1956 77 WP MM NOT_NAMED 1956-08-27 09:00:00 TS 20.4080 108.408 main 113 61 __P___________ -1 20.4080 108.408 0 1002 12 290
1956238N14117 1956 77 WP MM NOT_NAMED 1956-08-27 12:00:00 TS 20.6000 107.800 main 61 __O___________ -1 20.6000 107.800 0 1003 12 289

デジタル台風データ・検索

IBTrACS Databaseについて

本データベースは、米国NOAAが公開する1842年以降の世界の熱帯低気圧のベストトラックデータアーカイブInternational Best Track Archive for Climate Stewardship (IBTrACS)を、ウェブで閲覧しやすい形式に変換したものです。

最終更新日:2021-12-08